createdAt,value
2024-02-08T00:01:18.160Z,96075.19
2024-02-08T00:03:45.041Z,96074.19
2024-02-08T00:06:12.141Z,96069.97
2024-02-08T00:08:38.987Z,96067.72
2024-02-08T00:11:07.824Z,96078.25
2024-02-08T00:13:35.880Z,96072.19
2024-02-08T00:16:02.852Z,96085.09
2024-02-08T00:18:29.805Z,96070.59
2024-02-08T00:20:56.766Z,96068.78
2024-02-08T00:23:23.656Z,96069.59
2024-02-08T00:25:51.895Z,96076.81
2024-02-08T00:28:18.876Z,96073.22
2024-02-08T00:30:46.783Z,96077.81
2024-02-08T00:33:14.033Z,96073.22
2024-02-08T00:35:41.121Z,96079.06
2024-02-08T00:38:08.244Z,96065.97
2024-02-08T00:40:35.222Z,96040.66
2024-02-08T00:43:07.867Z,96062.34
2024-02-08T00:45:35.614Z,96068.41
2024-02-08T00:48:03.433Z,96064.00
2024-02-08T00:50:30.318Z,96053.25
2024-02-08T00:52:58.424Z,96053.25
2024-02-08T00:55:27.566Z,96052.50
2024-02-08T00:57:56.066Z,96055.31
2024-02-08T01:00:22.978Z,96059.16
2024-02-08T01:02:49.822Z,96045.22
2024-02-08T01:05:16.880Z,96052.88
2024-02-08T01:07:43.978Z,96057.19
2024-02-08T01:10:10.826Z,96062.59
2024-02-08T01:12:37.750Z,96062.16
2024-02-08T01:15:05.778Z,96057.13
2024-02-08T01:17:33.792Z,96052.06
2024-02-08T01:20:03.068Z,96061.63
2024-02-08T01:22:30.442Z,96046.19
2024-02-08T01:24:57.428Z,96051.88
2024-02-08T01:27:24.552Z,96064.25
2024-02-08T01:29:51.931Z,96043.84
2024-02-08T01:32:19.421Z,96045.03
2024-02-08T01:34:46.737Z,96053.31
2024-02-08T01:37:16.489Z,96051.31
2024-02-08T01:39:45.218Z,96040.00
2024-02-08T01:42:15.989Z,96039.03
2024-02-08T01:44:47.859Z,96026.25
2024-02-08T01:47:19.054Z,96031.13
2024-02-08T01:49:48.921Z,96010.75
2024-02-08T01:52:20.752Z,96018.84
2024-02-08T01:54:50.857Z,96027.56
2024-02-08T01:57:18.427Z,96021.53
2024-02-08T01:59:54.639Z,96008.00
2024-02-08T02:02:25.446Z,96022.94
2024-02-08T02:04:52.444Z,96026.19
2024-02-08T02:07:21.100Z,96003.38
2024-02-08T02:09:48.229Z,96020.75
2024-02-08T02:12:19.016Z,96020.94
2024-02-08T02:14:46.427Z,96015.50
2024-02-08T02:17:20.448Z,96016.13
2024-02-08T02:19:50.719Z,96009.25
2024-02-08T02:22:20.729Z,95987.78
2024-02-08T02:24:51.580Z,96010.91
2024-02-08T02:27:19.319Z,96013.97
2024-02-08T02:29:46.398Z,96002.59
2024-02-08T02:32:17.279Z,96007.31
2024-02-08T02:34:48.253Z,96003.22
2024-02-08T02:37:16.083Z,96000.00
2024-02-08T02:39:43.041Z,96002.84
2024-02-08T02:42:10.461Z,95981.19
2024-02-08T02:44:37.338Z,95999.00
2024-02-08T02:47:07.541Z,96013.97
2024-02-08T02:49:38.653Z,96003.03
2024-02-08T02:52:10.928Z,95991.34
2024-02-08T02:54:38.222Z,96000.44
2024-02-08T02:57:05.342Z,96004.94
2024-02-08T02:59:32.414Z,95991.16
2024-02-08T03:01:59.537Z,96006.28
2024-02-08T03:04:29.821Z,96007.53
2024-02-08T03:06:57.027Z,96007.75
2024-02-08T03:09:29.697Z,95997.38
2024-02-08T03:11:59.952Z,96006.53
2024-02-08T03:14:27.351Z,96008.34
2024-02-08T03:16:58.062Z,95990.56
2024-02-08T03:19:25.151Z,95990.56
2024-02-08T03:21:52.075Z,95995.00
2024-02-08T03:24:21.042Z,95999.88
2024-02-08T03:26:48.679Z,95975.19
2024-02-08T03:29:17.770Z,95990.00
2024-02-08T03:31:48.078Z,95992.19
2024-02-08T03:34:21.189Z,95982.66
2024-02-08T03:36:48.240Z,96005.72
2024-02-08T03:39:26.741Z,96004.72
2024-02-08T03:42:03.160Z,96007.16
2024-02-08T03:44:35.616Z,96000.13
2024-02-08T03:47:13.834Z,95998.03
2024-02-08T03:49:42.400Z,96014.63
2024-02-08T03:52:12.024Z,95997.84
2024-02-08T03:54:40.046Z,95992.81
2024-02-08T03:57:07.741Z,96010.03
2024-02-08T03:59:35.680Z,96002.78
2024-02-08T04:02:04.809Z,95998.28
2024-02-08T04:04:52.044Z,95996.88
2024-02-08T04:07:44.824Z,95981.94
2024-02-08T04:10:41.006Z,95998.16
2024-02-08T04:13:26.466Z,95997.94
2024-02-08T04:16:11.971Z,95998.91
2024-02-08T04:18:57.375Z,96001.78
2024-02-08T04:21:42.845Z,96000.94
2024-02-08T04:24:28.241Z,95980.75
2024-02-08T04:27:13.506Z,95980.75
2024-02-08T04:29:58.971Z,96000.78
2024-02-08T04:32:44.413Z,95985.38
2024-02-08T04:35:36.315Z,95988.25
2024-02-08T04:38:22.200Z,96000.78
2024-02-08T04:41:07.884Z,95988.25
2024-02-08T04:43:53.530Z,95983.81
2024-02-08T04:46:45.580Z,95999.97
2024-02-08T04:49:33.993Z,95983.38
2024-02-08T04:52:19.737Z,96006.03
2024-02-08T04:54:46.524Z,96000.78
2024-02-08T04:57:13.339Z,95985.00
2024-02-08T04:59:46.804Z,96009.44
2024-02-08T05:02:15.663Z,95999.34
2024-02-08T05:04:44.629Z,95988.63
2024-02-08T05:07:12.170Z,96001.38
2024-02-08T05:09:41.631Z,95996.97
2024-02-08T05:12:12.624Z,95996.78
2024-02-08T05:14:40.029Z,95988.88
2024-02-08T05:17:10.853Z,95981.19
2024-02-08T05:19:41.607Z,95991.34
2024-02-08T05:22:08.657Z,95985.91
2024-02-08T05:24:35.472Z,95993.16
2024-02-08T05:27:03.385Z,95990.34
2024-02-08T05:29:30.906Z,95981.81
2024-02-08T05:31:59.409Z,95979.84
2024-02-08T05:34:27.374Z,95983.63
2024-02-08T05:36:57.043Z,95984.25
2024-02-08T05:39:29.445Z,95989.09
2024-02-08T05:41:58.151Z,95971.09
2024-02-08T05:44:32.253Z,95978.00
2024-02-08T05:47:09.698Z,95981.47
2024-02-08T05:49:38.390Z,95977.81
2024-02-08T05:52:08.366Z,95982.88
2024-02-08T05:54:38.688Z,95999.44
2024-02-08T05:57:08.713Z,95991.53
2024-02-08T05:59:39.067Z,95993.75
2024-02-08T06:02:25.497Z,95999.63
2024-02-08T06:05:02.783Z,95978.00
2024-02-08T06:07:32.664Z,95983.63
2024-02-08T06:10:09.881Z,95989.72
2024-02-08T06:12:47.881Z,95990.16
2024-02-08T06:15:27.623Z,95982.50
2024-02-08T06:18:06.071Z,95992.63
2024-02-08T06:20:44.993Z,95983.91
2024-02-08T06:23:20.448Z,95993.09
2024-02-08T06:26:10.183Z,95996.53
2024-02-08T06:28:48.455Z,95988.66
2024-02-08T06:31:16.795Z,95979.91
2024-02-08T06:34:04.913Z,95989.47
2024-02-08T06:36:35.741Z,95989.28
2024-02-08T06:39:24.318Z,95991.91
2024-02-08T06:41:57.054Z,95980.97
2024-02-08T06:44:38.885Z,95989.88
2024-02-08T06:47:25.449Z,95989.28
2024-02-08T06:50:13.201Z,95996.38
2024-02-08T06:52:58.690Z,95990.91
2024-02-08T06:55:44.089Z,95988.31
2024-02-08T06:58:29.462Z,95994.41
2024-02-08T07:01:14.961Z,95995.66
2024-02-08T07:04:00.427Z,95990.97
2024-02-08T07:06:45.904Z,95983.09
2024-02-08T07:09:31.330Z,95976.88
2024-02-08T07:12:16.731Z,96001.56
2024-02-08T07:15:02.148Z,95986.00
2024-02-08T07:17:47.675Z,95962.31
2024-02-08T07:20:33.147Z,95973.56
2024-02-08T07:23:18.992Z,95975.13
2024-02-08T07:26:04.374Z,95959.59
2024-02-08T07:29:03.475Z,95986.91
2024-02-08T07:31:48.996Z,95980.44
2024-02-08T07:34:34.429Z,95986.09
2024-02-08T07:37:19.669Z,95988.94
2024-02-08T07:40:02.870Z,95997.03
2024-02-08T07:42:43.394Z,96006.16
2024-02-08T07:45:14.509Z,95988.38
2024-02-08T07:47:41.965Z,95996.50
2024-02-08T07:50:10.024Z,96009.22
2024-02-08T07:52:57.184Z,96001.56
2024-02-08T07:55:34.674Z,95992.72
2024-02-08T07:58:09.617Z,95998.97
2024-02-08T08:00:39.465Z,95994.94
2024-02-08T08:03:10.807Z,95985.28
2024-02-08T08:05:43.205Z,95980.03
2024-02-08T08:08:26.465Z,95985.31
2024-02-08T08:10:58.424Z,95992.41
2024-02-08T08:13:45.604Z,95991.00
2024-02-08T08:16:31.227Z,95984.94
2024-02-08T08:19:11.701Z,95982.75
2024-02-08T08:22:00.787Z,95982.13
2024-02-08T08:24:28.190Z,95976.88
2024-02-08T08:27:08.344Z,95986.41
2024-02-08T08:29:45.216Z,95974.69
2024-02-08T08:32:31.561Z,95974.31
2024-02-08T08:35:24.871Z,95980.56
2024-02-08T08:38:10.322Z,95973.47
2024-02-08T08:40:41.090Z,95971.25
2024-02-08T08:43:21.025Z,95981.34
2024-02-08T08:45:52.243Z,95961.50
2024-02-08T08:48:23.352Z,95960.72
2024-02-08T08:50:56.927Z,95983.94
2024-02-08T08:53:37.414Z,95983.56
2024-02-08T08:56:12.679Z,95974.63
2024-02-08T08:58:41.440Z,95954.84
2024-02-08T09:01:17.973Z,95974.84
2024-02-08T09:03:58.321Z,95961.09
2024-02-08T09:06:28.839Z,95977.88
2024-02-08T09:08:58.448Z,95965.50
2024-02-08T09:11:26.853Z,95967.94
2024-02-08T09:13:54.901Z,95981.09
2024-02-08T09:16:25.933Z,95977.63
2024-02-08T09:19:01.094Z,95979.66
2024-02-08T09:21:33.919Z,95985.53
2024-02-08T09:24:05.537Z,95979.06
2024-02-08T09:26:49.909Z,95949.13
2024-02-08T09:29:31.281Z,95985.09
2024-02-08T09:32:01.595Z,95980.22
2024-02-08T09:34:41.602Z,95981.44
2024-02-08T09:37:10.121Z,95965.22
2024-02-08T09:39:55.321Z,95975.31
2024-02-08T09:42:31.111Z,95983.38
2024-02-08T09:45:15.815Z,95980.94
2024-02-08T09:47:53.686Z,95977.22
2024-02-08T09:50:37.716Z,95974.78
2024-02-08T09:53:29.135Z,95976.59
2024-02-08T09:56:06.972Z,95979.41
2024-02-08T09:58:54.145Z,95977.38
2024-02-08T10:01:36.644Z,95975.50
2024-02-08T10:04:07.548Z,95963.34
2024-02-08T10:06:47.433Z,95968.53
2024-02-08T10:09:34.485Z,95962.53
2024-02-08T10:12:09.028Z,95979.09
2024-02-08T10:14:36.755Z,95959.56
2024-02-08T10:17:25.946Z,95975.50
2024-02-08T10:20:15.387Z,95976.47
2024-02-08T10:22:55.226Z,95976.13
2024-02-08T10:25:45.375Z,95971.34
2024-02-08T10:28:15.119Z,95962.19
2024-02-08T10:30:46.088Z,95961.00
2024-02-08T10:33:16.853Z,95942.91
2024-02-08T10:35:44.042Z,95939.53
2024-02-08T10:38:53.516Z,95948.88
2024-02-08T10:41:28.664Z,95936.34
2024-02-08T10:43:58.754Z,95944.06
2024-02-08T10:46:33.694Z,95941.63
2024-02-08T10:49:10.800Z,95938.66
2024-02-08T10:51:38.545Z,95925.16
2024-02-08T10:54:10.064Z,95904.56
2024-02-08T10:56:49.280Z,95937.72
2024-02-08T10:59:25.279Z,95903.31
2024-02-08T11:01:52.779Z,95912.38
2024-02-08T11:04:30.648Z,95921.50
2024-02-08T11:07:22.968Z,95917.56
2024-02-08T11:09:49.921Z,95915.50
2024-02-08T11:12:32.770Z,95911.78
2024-02-08T11:15:14.703Z,95901.84
2024-02-08T11:17:51.243Z,95912.84
2024-02-08T11:20:44.099Z,95917.03
2024-02-08T11:23:25.236Z,95917.44
2024-02-08T11:25:55.401Z,95905.84
2024-02-08T11:28:29.558Z,95904.69
2024-02-08T11:30:56.769Z,95911.06
2024-02-08T11:33:34.599Z,95895.75
2024-02-08T11:36:14.627Z,95898.56
2024-02-08T11:38:55.500Z,95870.09
2024-02-08T11:41:27.394Z,95865.50
2024-02-08T11:44:05.116Z,95879.72
2024-02-08T11:46:40.000Z,95878.13
2024-02-08T11:49:17.836Z,95868.69
2024-02-08T11:51:50.621Z,95844.69
2024-02-08T11:54:24.610Z,95861.78
2024-02-08T11:56:53.235Z,95870.06
2024-02-08T11:59:21.615Z,95863.78
2024-02-08T12:01:50.974Z,95865.88
2024-02-08T12:04:18.172Z,95862.78
2024-02-08T12:06:47.833Z,95846.44
2024-02-08T12:09:30.050Z,95852.09
2024-02-08T12:11:56.907Z,95851.97
2024-02-08T12:14:28.048Z,95850.91
2024-02-08T12:16:59.092Z,95850.91
2024-02-08T12:19:29.860Z,95846.31
2024-02-08T12:22:00.627Z,95851.97
2024-02-08T12:24:33.580Z,95844.25
2024-02-08T12:27:16.780Z,95841.25
2024-02-08T12:29:47.010Z,95844.59
2024-02-08T12:32:18.050Z,95827.69
2024-02-08T12:34:50.106Z,95834.81
2024-02-08T12:37:21.124Z,95822.88
2024-02-08T12:39:51.243Z,95832.41
2024-02-08T12:42:19.905Z,95825.28
2024-02-08T12:44:50.933Z,95811.94
2024-02-08T12:47:19.375Z,95814.94
2024-02-08T12:49:48.911Z,95809.41
2024-02-08T12:52:18.493Z,95815.84
2024-02-08T12:54:54.624Z,95799.75
2024-02-08T12:57:23.671Z,95805.84
2024-02-08T13:00:03.895Z,95803.66
2024-02-08T13:02:35.051Z,95795.97
2024-02-08T13:05:05.128Z,95801.03
2024-02-08T13:07:36.414Z,95798.84
2024-02-08T13:10:16.504Z,95792.97
2024-02-08T13:12:46.284Z,95791.59
2024-02-08T13:15:23.275Z,95787.56
2024-02-08T13:17:52.591Z,95777.28
2024-02-08T13:20:20.311Z,95782.78
2024-02-08T13:22:48.696Z,95768.56
2024-02-08T13:25:17.565Z,95776.91
2024-02-08T13:27:51.742Z,95756.22
2024-02-08T13:30:18.892Z,95765.06
2024-02-08T13:32:50.942Z,95758.97
2024-02-08T13:35:20.843Z,95762.19
2024-02-08T13:37:55.612Z,95743.00
2024-02-08T13:40:24.555Z,95745.53
2024-02-08T13:43:01.001Z,95745.78
2024-02-08T13:45:33.579Z,95732.44
2024-02-08T13:48:03.057Z,95738.19
2024-02-08T13:50:32.523Z,95742.41
2024-02-08T13:53:05.332Z,95730.56
2024-02-08T13:55:45.879Z,95728.38
2024-02-08T13:58:20.252Z,95731.56
2024-02-08T14:00:48.205Z,95722.13
2024-02-08T14:03:24.795Z,95722.56
2024-02-08T14:05:53.960Z,95720.16
2024-02-08T14:08:25.724Z,95705.22
2024-02-08T14:10:52.991Z,95714.75
2024-02-08T14:13:31.280Z,95713.50
2024-02-08T14:16:02.397Z,95685.31
2024-02-08T14:18:34.375Z,95700.25
2024-02-08T14:21:03.387Z,95699.22
2024-02-08T14:23:50.957Z,95702.06
2024-02-08T14:26:18.180Z,95704.81
2024-02-08T14:28:48.588Z,95710.44
2024-02-08T14:31:16.921Z,95704.00
2024-02-08T14:33:47.591Z,95709.94
2024-02-08T14:36:15.680Z,95707.16
2024-02-08T14:38:46.862Z,95694.28
2024-02-08T14:41:28.100Z,95698.97
2024-02-08T14:43:56.670Z,95687.19
2024-02-08T14:46:27.816Z,95707.03
2024-02-08T14:48:55.783Z,95693.34
2024-02-08T14:51:25.704Z,95700.53
2024-02-08T14:53:59.510Z,95705.03
2024-02-08T14:56:26.775Z,95690.22
2024-02-08T14:59:10.808Z,95702.75
2024-02-08T15:01:43.586Z,95700.34
2024-02-08T15:04:18.941Z,95692.56
2024-02-08T15:07:07.710Z,95715.38
2024-02-08T15:09:36.331Z,95718.09
2024-02-08T15:12:23.022Z,95705.00
2024-02-08T15:14:50.169Z,95680.91
2024-02-08T15:17:20.358Z,95690.00
2024-02-08T15:19:48.451Z,95697.31
2024-02-08T15:22:41.319Z,95696.13
2024-02-08T15:25:08.772Z,95709.28
2024-02-08T15:27:49.666Z,95666.53
2024-02-08T15:30:18.668Z,95694.78
2024-02-08T15:32:59.999Z,95693.03
2024-02-08T15:35:47.572Z,95699.47
2024-02-08T15:38:21.161Z,95696.47
2024-02-08T15:40:57.107Z,95689.84
2024-02-08T15:43:27.279Z,95691.44
2024-02-08T15:45:55.933Z,95698.97
2024-02-08T15:48:35.744Z,95696.78
2024-02-08T15:51:10.672Z,95693.97
2024-02-08T15:53:50.943Z,95689.97
2024-02-08T15:56:21.057Z,95686.97
2024-02-08T15:58:54.628Z,95670.25
2024-02-08T16:01:41.858Z,95674.69
2024-02-08T16:04:29.155Z,95682.44
2024-02-08T16:06:56.482Z,95677.00
2024-02-08T16:09:27.779Z,95693.94
2024-02-08T16:12:01.683Z,95696.81
2024-02-08T16:14:30.574Z,95691.75
2024-02-08T16:17:08.787Z,95675.03
2024-02-08T16:19:52.679Z,95688.34
2024-02-08T16:22:25.860Z,95686.97
2024-02-08T16:24:53.808Z,95673.00
2024-02-08T16:27:21.140Z,95678.09
2024-02-08T16:30:06.997Z,95669.84
2024-02-08T16:32:40.762Z,95664.03
2024-02-08T16:35:26.336Z,95669.88
2024-02-08T16:37:53.355Z,95672.13
2024-02-08T16:40:31.317Z,95674.75
2024-02-08T16:43:12.044Z,95669.94
2024-02-08T16:45:59.564Z,95683.66
2024-02-08T16:48:34.748Z,95686.91
2024-02-08T16:51:11.115Z,95677.81
2024-02-08T16:53:41.291Z,95674.75
2024-02-08T16:56:12.080Z,95679.41
2024-02-08T16:58:39.822Z,95677.38
2024-02-08T17:01:20.394Z,95664.88
2024-02-08T17:04:13.744Z,95677.81
2024-02-08T17:07:00.074Z,95669.31
2024-02-08T17:09:35.282Z,95672.16
2024-02-08T17:12:06.697Z,95676.00
2024-02-08T17:14:48.233Z,95680.06
2024-02-08T17:17:15.490Z,95674.19
2024-02-08T17:19:48.340Z,95648.53
2024-02-08T17:22:34.337Z,95632.22
2024-02-08T17:25:13.247Z,95657.22
2024-02-08T17:27:50.681Z,95653.22
2024-02-08T17:30:38.229Z,95642.31
2024-02-08T17:33:13.130Z,95642.88
2024-02-08T17:35:41.615Z,95645.16
2024-02-08T17:38:08.638Z,95622.00
2024-02-08T17:40:35.781Z,95626.22
2024-02-08T17:43:12.075Z,95628.28
2024-02-08T17:45:57.800Z,95633.50
2024-02-08T17:48:30.261Z,95632.06
2024-02-08T17:51:00.310Z,95598.25
2024-02-08T17:53:29.435Z,95629.28
2024-02-08T17:55:56.500Z,95613.81
2024-02-08T17:58:26.328Z,95615.78
2024-02-08T18:00:53.502Z,95630.91
2024-02-08T18:03:27.289Z,95616.59
2024-02-08T18:05:57.153Z,95624.66
2024-02-08T18:08:27.610Z,95613.97
2024-02-08T18:10:54.846Z,95627.28
2024-02-08T18:13:28.184Z,95617.38
2024-02-08T18:15:55.667Z,95600.88
2024-02-08T18:18:25.744Z,95623.84
2024-02-08T18:20:59.650Z,95623.84
2024-02-08T18:23:30.700Z,95621.44
2024-02-08T18:25:57.566Z,95599.03
2024-02-08T18:28:27.106Z,95612.34
2024-02-08T18:31:01.619Z,95600.25
2024-02-08T18:33:29.344Z,95609.50
2024-02-08T18:35:59.613Z,95584.09
2024-02-08T18:38:27.362Z,95611.09
2024-02-08T18:41:02.637Z,95600.81
2024-02-08T18:43:29.823Z,95593.91
2024-02-08T18:45:57.370Z,95607.66
2024-02-08T18:48:25.033Z,95601.22
2024-02-08T18:50:53.875Z,95608.69
2024-02-08T18:53:21.262Z,95607.88
2024-02-08T18:55:52.758Z,95611.53
2024-02-08T18:58:20.453Z,95601.00
2024-02-08T19:00:51.276Z,95607.06
2024-02-08T19:03:21.870Z,95578.44
2024-02-08T19:05:50.500Z,95588.91
2024-02-08T19:08:21.714Z,95599.16
2024-02-08T19:10:54.071Z,95600.63
2024-02-08T19:13:28.931Z,95606.66
2024-02-08T19:16:03.303Z,95607.66
2024-02-08T19:18:45.731Z,95604.44
2024-02-08T19:21:16.854Z,95594.13
2024-02-08T19:23:46.984Z,95601.22
2024-02-08T19:26:23.578Z,95586.72
2024-02-08T19:28:54.264Z,95592.56
2024-02-08T19:31:25.290Z,95584.91
2024-02-08T19:33:53.816Z,95580.25
2024-02-08T19:36:24.530Z,95582.88
2024-02-08T19:38:55.914Z,95566.78
2024-02-08T19:41:23.517Z,95571.81
2024-02-08T19:43:50.688Z,95591.19
2024-02-08T19:46:18.771Z,95590.16
2024-02-08T19:49:03.121Z,95580.34
2024-02-08T19:51:32.387Z,95588.19
2024-02-08T19:54:00.531Z,95599.06
2024-02-08T19:56:35.095Z,95595.41
2024-02-08T19:59:06.638Z,95587.38
2024-02-08T20:01:37.643Z,95587.19
2024-02-08T20:04:06.118Z,95597.25
2024-02-08T20:06:35.638Z,95585.75
2024-02-08T20:09:09.554Z,95581.16
2024-02-08T20:11:40.488Z,95588.19
2024-02-08T20:14:07.838Z,95594.63
2024-02-08T20:16:37.290Z,95589.81
2024-02-08T20:19:10.663Z,95596.84
2024-02-08T20:21:39.328Z,95602.91
2024-02-08T20:24:13.118Z,95603.91
2024-02-08T20:26:44.222Z,95601.50
2024-02-08T20:29:16.077Z,95594.03
2024-02-08T20:31:46.500Z,95598.66
2024-02-08T20:34:14.486Z,95605.53
2024-02-08T20:36:41.577Z,95607.56
2024-02-08T20:39:19.735Z,95595.47
2024-02-08T20:41:50.971Z,95604.16
2024-02-08T20:44:19.200Z,95574.31
2024-02-08T20:46:49.976Z,95595.25
2024-02-08T20:49:22.103Z,95620.28
2024-02-08T20:51:49.728Z,95615.88
2024-02-08T20:54:16.636Z,95613.25
2024-02-08T20:56:44.786Z,95617.06
2024-02-08T20:59:12.106Z,95605.19
2024-02-08T21:01:39.044Z,95619.47
2024-02-08T21:04:11.964Z,95608.97
2024-02-08T21:06:41.869Z,95597.31
2024-02-08T21:09:11.134Z,95585.81
2024-02-08T21:11:37.947Z,95586.41
2024-02-08T21:14:05.393Z,95578.50
2024-02-08T21:16:33.355Z,95581.94
2024-02-08T21:19:02.789Z,95582.53
2024-02-08T21:21:33.239Z,95590.38
2024-02-08T21:24:00.791Z,95585.81
2024-02-08T21:26:27.939Z,95579.53
2024-02-08T21:28:55.433Z,95554.34
2024-02-08T21:31:22.351Z,95577.50
2024-02-08T21:33:53.752Z,95566.22
2024-02-08T21:36:22.575Z,95569.06
2024-02-08T21:38:52.181Z,95558.59
2024-02-08T21:41:19.586Z,95544.84
2024-02-08T21:43:49.121Z,95536.56
2024-02-08T21:46:18.792Z,95556.34
2024-02-08T21:48:48.061Z,95562.81
2024-02-08T21:51:17.146Z,95561.63
2024-02-08T21:53:43.998Z,95547.13
2024-02-08T21:56:15.676Z,95567.50
2024-02-08T21:58:44.605Z,95581.44
2024-02-08T22:03:55.853Z,95569.53
2024-02-08T22:06:26.640Z,95555.84
2024-02-08T22:08:53.529Z,95552.03
2024-02-08T22:11:20.604Z,95563.50
2024-02-08T22:13:47.503Z,95539.13
2024-02-08T22:16:23.461Z,95567.19
2024-02-08T22:18:50.445Z,95553.06
2024-02-08T22:21:18.035Z,95548.66
2024-02-08T22:23:45.618Z,95552.47
2024-02-08T22:26:14.098Z,95550.91
2024-02-08T22:28:42.916Z,95559.56
2024-02-08T22:31:12.530Z,95574.28
2024-02-08T22:33:39.956Z,95577.91
2024-02-08T22:36:07.991Z,95573.09
2024-02-08T22:38:34.895Z,95540.81
2024-02-08T22:41:01.793Z,95516.03
2024-02-08T22:43:28.811Z,95538.78
2024-02-08T22:45:56.245Z,95532.53
2024-02-08T22:48:23.478Z,95542.84
2024-02-08T22:50:52.604Z,95536.78
2024-02-08T22:53:21.272Z,95530.09
2024-02-08T22:55:52.276Z,95516.41
2024-02-08T22:58:21.247Z,95526.94
2024-02-08T23:00:50.218Z,95541.84
2024-02-08T23:03:18.440Z,95509.19
2024-02-08T23:05:51.916Z,95549.69
2024-02-08T23:08:18.737Z,95534.38
2024-02-08T23:10:45.587Z,95519.44
2024-02-08T23:13:12.682Z,95522.06
2024-02-08T23:15:47.350Z,95525.13
2024-02-08T23:18:23.652Z,95521.91
2024-02-08T23:20:55.029Z,95547.31
2024-02-08T23:23:21.876Z,95539.81
2024-02-08T23:25:49.750Z,95530.59
2024-02-08T23:28:17.024Z,95518.69
2024-02-08T23:30:45.980Z,95530.78
2024-02-08T23:33:14.922Z,95548.13
2024-02-08T23:35:41.882Z,95549.53
2024-02-08T23:38:10.153Z,95561.19
2024-02-08T23:40:37.108Z,95554.13
2024-02-08T23:43:08.977Z,95534.00
2024-02-08T23:45:40.670Z,95550.31
2024-02-08T23:48:10.266Z,95532.53
2024-02-08T23:50:37.761Z,95525.50
2024-02-08T23:53:05.727Z,95522.03
2024-02-08T23:55:36.763Z,95499.88
2024-02-08T23:58:05.627Z,95524.66
